sensor_id;sensor_type;location;lat;lon;timestamp;P1;durP1;ratioP1;P2;durP2;ratioP2
76995;SDS011;65929;49.062;10.338;2023-06-24T00:00:25;6.35;;;3.90;;
76995;SDS011;65929;49.062;10.338;2023-06-24T00:01:26;5.72;;;4.07;;
76995;SDS011;65929;49.062;10.338;2023-06-24T00:02:27;6.20;;;3.45;;
76995;SDS011;65929;49.062;10.338;2023-06-24T00:03:28;4.50;;;3.17;;
76995;SDS011;65929;49.062;10.338;2023-06-24T00:04:29;5.75;;;3.60;;
76995;SDS011;65929;49.062;10.338;2023-06-24T00:05:39;5.13;;;3.72;;
76995;SDS011;65929;49.062;10.338;2023-06-24T00:06:39;5.47;;;3.50;;
76995;SDS011;65929;49.062;10.338;2023-06-24T00:07:40;4.70;;;3.72;;
76995;SDS011;65929;49.062;10.338;2023-06-24T00:08:44;5.88;;;3.67;;
76995;SDS011;65929;49.062;10.338;2023-06-24T00:09:45;4.40;;;3.25;;
76995;SDS011;65929;49.062;10.338;2023-06-24T00:10:46;5.18;;;3.38;;
76995;SDS011;65929;49.062;10.338;2023-06-24T00:11:47;4.95;;;3.72;;
76995;SDS011;65929;49.062;10.338;2023-06-24T00:12:48;5.38;;;3.58;;
76995;SDS011;65929;49.062;10.338;2023-06-24T00:13:52;4.68;;;3.60;;
76995;SDS011;65929;49.062;10.338;2023-06-24T00:14:52;4.78;;;3.40;;
76995;SDS011;65929;49.062;10.338;2023-06-24T00:15:53;5.38;;;3.53;;
76995;SDS011;65929;49.062;10.338;2023-06-24T00:16:55;4.32;;;3.00;;
76995;SDS011;65929;49.062;10.338;2023-06-24T00:17:56;5.55;;;3.45;;
76995;SDS011;65929;49.062;10.338;2023-06-24T00:19:05;5.22;;;3.50;;
76995;SDS011;65929;49.062;10.338;2023-06-24T00:20:07;5.45;;;3.38;;
76995;SDS011;65929;49.062;10.338;2023-06-24T00:21:11;5.38;;;3.50;;
76995;SDS011;65929;49.062;10.338;2023-06-24T00:22:12;5.05;;;3.40;;
76995;SDS011;65929;49.062;10.338;2023-06-24T00:23:13;4.32;;;3.42;;
76995;SDS011;65929;49.062;10.338;2023-06-24T00:24:17;9.35;;;3.92;;
76995;SDS011;65929;49.062;10.338;2023-06-24T00:25:19;4.53;;;3.22;;
76995;SDS011;65929;49.062;10.338;2023-06-24T00:26:20;5.07;;;3.50;;
76995;SDS011;65929;49.062;10.338;2023-06-24T00:27:21;4.18;;;3.05;;
76995;SDS011;65929;49.062;10.338;2023-06-24T00:28:25;4.03;;;3.33;;
76995;SDS011;65929;49.062;10.338;2023-06-24T00:29:27;4.93;;;3.80;;
76995;SDS011;65929;49.062;10.338;2023-06-24T00:30:28;4.75;;;3.33;;
76995;SDS011;65929;49.062;10.338;2023-06-24T00:31:29;4.90;;;3.20;;
76995;SDS011;65929;49.062;10.338;2023-06-24T00:32:30;4.13;;;3.25;;
76995;SDS011;65929;49.062;10.338;2023-06-24T00:33:31;5.15;;;3.45;;
76995;SDS011;65929;49.062;10.338;2023-06-24T00:34:36;5.10;;;3.83;;
76995;SDS011;65929;49.062;10.338;2023-06-24T00:35:37;6.63;;;4.20;;
76995;SDS011;65929;49.062;10.338;2023-06-24T00:36:38;4.80;;;3.47;;
76995;SDS011;65929;49.062;10.338;2023-06-24T00:37:39;4.55;;;3.42;;
76995;SDS011;65929;49.062;10.338;2023-06-24T00:38:40;4.15;;;3.45;;
76995;SDS011;65929;49.062;10.338;2023-06-24T00:39:41;5.88;;;3.67;;
76995;SDS011;65929;49.062;10.338;2023-06-24T00:40:42;4.88;;;3.80;;
76995;SDS011;65929;49.062;10.338;2023-06-24T00:41:43;4.28;;;3.28;;
76995;SDS011;65929;49.062;10.338;2023-06-24T00:42:44;4.40;;;3.38;;
76995;SDS011;65929;49.062;10.338;2023-06-24T00:43:46;5.60;;;3.78;;
76995;SDS011;65929;49.062;10.338;2023-06-24T00:44:49;5.63;;;3.55;;
76995;SDS011;65929;49.062;10.338;2023-06-24T00:45:50;4.18;;;3.25;;
76995;SDS011;65929;49.062;10.338;2023-06-24T00:46:53;4.30;;;3.10;;
76995;SDS011;65929;49.062;10.338;2023-06-24T00:47:54;4.80;;;3.40;;
76995;SDS011;65929;49.062;10.338;2023-06-24T00:48:56;4.55;;;3.88;;
76995;SDS011;65929;49.062;10.338;2023-06-24T00:49:57;5.00;;;3.90;;
76995;SDS011;65929;49.062;10.338;2023-06-24T00:50:58;6.43;;;4.22;;
76995;SDS011;65929;49.062;10.338;2023-06-24T00:51:59;6.10;;;4.00;;
76995;SDS011;65929;49.062;10.338;2023-06-24T00:53:01;6.30;;;4.45;;
76995;SDS011;65929;49.062;10.338;2023-06-24T00:54:02;5.38;;;4.22;;
76995;SDS011;65929;49.062;10.338;2023-06-24T00:55:03;5.93;;;3.95;;
76995;SDS011;65929;49.062;10.338;2023-06-24T00:56:05;5.70;;;4.60;;
76995;SDS011;65929;49.062;10.338;2023-06-24T00:57:06;6.15;;;4.32;;
76995;SDS011;65929;49.062;10.338;2023-06-24T00:58:08;6.50;;;4.78;;
76995;SDS011;65929;49.062;10.338;2023-06-24T00:59:09;6.22;;;4.45;;
76995;SDS011;65929;49.062;10.338;2023-06-24T01:00:14;5.72;;;4.07;;
76995;SDS011;65929;49.062;10.338;2023-06-24T01:01:18;5.88;;;4.25;;
76995;SDS011;65929;49.062;10.338;2023-06-24T01:02:20;6.03;;;4.00;;
76995;SDS011;65929;49.062;10.338;2023-06-24T01:03:22;6.70;;;4.63;;
76995;SDS011;65929;49.062;10.338;2023-06-24T01:04:24;6.43;;;4.40;;
76995;SDS011;65929;49.062;10.338;2023-06-24T01:05:25;5.80;;;4.38;;
76995;SDS011;65929;49.062;10.338;2023-06-24T01:06:26;6.88;;;4.45;;
76995;SDS011;65929;49.062;10.338;2023-06-24T01:07:29;6.10;;;4.53;;
76995;SDS011;65929;49.062;10.338;2023-06-24T01:08:31;6.28;;;4.40;;
76995;SDS011;65929;49.062;10.338;2023-06-24T01:09:32;6.10;;;4.60;;
76995;SDS011;65929;49.062;10.338;2023-06-24T01:10:34;6.72;;;5.00;;
76995;SDS011;65929;49.062;10.338;2023-06-24T01:11:35;6.28;;;4.70;;
76995;SDS011;65929;49.062;10.338;2023-06-24T01:12:38;7.75;;;4.70;;
76995;SDS011;65929;49.062;10.338;2023-06-24T01:13:40;8.48;;;5.00;;
76995;SDS011;65929;49.062;10.338;2023-06-24T01:14:41;5.93;;;4.50;;
76995;SDS011;65929;49.062;10.338;2023-06-24T01:15:44;6.15;;;4.90;;
76995;SDS011;65929;49.062;10.338;2023-06-24T01:16:48;7.07;;;4.85;;
76995;SDS011;65929;49.062;10.338;2023-06-24T01:17:56;8.13;;;5.18;;
76995;SDS011;65929;49.062;10.338;2023-06-24T01:19:04;7.53;;;5.32;;
76995;SDS011;65929;49.062;10.338;2023-06-24T01:20:21;7.47;;;4.63;;
76995;SDS011;65929;49.062;10.338;2023-06-24T01:21:31;7.45;;;4.60;;
76995;SDS011;65929;49.062;10.338;2023-06-24T01:22:49;6.57;;;4.55;;
76995;SDS011;65929;49.062;10.338;2023-06-24T01:25:59;7.65;;;4.22;;
76995;SDS011;65929;49.062;10.338;2023-06-24T01:27:24;6.20;;;4.28;;
76995;SDS011;65929;49.062;10.338;2023-06-24T01:28:47;5.57;;;4.45;;
76995;SDS011;65929;49.062;10.338;2023-06-24T01:30:14;6.22;;;4.32;;
76995;SDS011;65929;49.062;10.338;2023-06-24T01:31:28;6.68;;;4.40;;
76995;SDS011;65929;49.062;10.338;2023-06-24T01:32:36;5.55;;;3.75;;
76995;SDS011;65929;49.062;10.338;2023-06-24T01:33:46;8.15;;;5.35;;
76995;SDS011;65929;49.062;10.338;2023-06-24T01:34:55;6.82;;;4.97;;
76995;SDS011;65929;49.062;10.338;2023-06-24T01:35:59;8.23;;;4.53;;
76995;SDS011;65929;49.062;10.338;2023-06-24T01:37:04;7.45;;;4.68;;
76995;SDS011;65929;49.062;10.338;2023-06-24T01:38:11;8.25;;;4.50;;
76995;SDS011;65929;49.062;10.338;2023-06-24T01:39:17;6.78;;;4.75;;
76995;SDS011;65929;49.062;10.338;2023-06-24T01:40:23;6.00;;;4.30;;
76995;SDS011;65929;49.062;10.338;2023-06-24T01:41:26;5.70;;;4.28;;
76995;SDS011;65929;49.062;10.338;2023-06-24T01:42:32;4.97;;;4.15;;
76995;SDS011;65929;49.062;10.338;2023-06-24T01:43:35;5.93;;;4.55;;
76995;SDS011;65929;49.062;10.338;2023-06-24T01:44:37;6.18;;;4.47;;
76995;SDS011;65929;49.062;10.338;2023-06-24T01:45:40;4.97;;;4.18;;
76995;SDS011;65929;49.062;10.338;2023-06-24T01:46:44;6.35;;;4.30;;
76995;SDS011;65929;49.062;10.338;2023-06-24T01:47:48;6.18;;;4.00;;
76995;SDS011;65929;49.062;10.338;2023-06-24T01:48:54;7.18;;;3.88;;
76995;SDS011;65929;49.062;10.338;2023-06-24T01:49:59;6.68;;;4.40;;
76995;SDS011;65929;49.062;10.338;2023-06-24T01:51:03;4.45;;;3.67;;
76995;SDS011;65929;49.062;10.338;2023-06-24T01:52:08;7.45;;;4.13;;
76995;SDS011;65929;49.062;10.338;2023-06-24T01:53:10;5.28;;;3.75;;
76995;SDS011;65929;49.062;10.338;2023-06-24T01:54:14;6.35;;;4.20;;
76995;SDS011;65929;49.062;10.338;2023-06-24T01:55:19;5.30;;;3.92;;
76995;SDS011;65929;49.062;10.338;2023-06-24T01:56:21;7.25;;;4.22;;
76995;SDS011;65929;49.062;10.338;2023-06-24T01:57:26;6.97;;;4.15;;
76995;SDS011;65929;49.062;10.338;2023-06-24T01:58:29;6.28;;;4.18;;
76995;SDS011;65929;49.062;10.338;2023-06-24T01:59:32;5.75;;;4.00;;
76995;SDS011;65929;49.062;10.338;2023-06-24T02:00:34;5.25;;;4.00;;
76995;SDS011;65929;49.062;10.338;2023-06-24T02:01:37;7.55;;;3.92;;
76995;SDS011;65929;49.062;10.338;2023-06-24T02:02:41;7.25;;;4.50;;
76995;SDS011;65929;49.062;10.338;2023-06-24T02:03:42;5.80;;;4.10;;
76995;SDS011;65929;49.062;10.338;2023-06-24T02:04:45;7.45;;;4.15;;
76995;SDS011;65929;49.062;10.338;2023-06-24T02:05:47;6.32;;;4.00;;
76995;SDS011;65929;49.062;10.338;2023-06-24T02:06:49;6.22;;;4.05;;
76995;SDS011;65929;49.062;10.338;2023-06-24T02:07:54;6.70;;;3.50;;
76995;SDS011;65929;49.062;10.338;2023-06-24T02:08:57;5.35;;;3.80;;
76995;SDS011;65929;49.062;10.338;2023-06-24T02:10:00;5.63;;;4.13;;
76995;SDS011;65929;49.062;10.338;2023-06-24T02:11:03;5.85;;;4.15;;
76995;SDS011;65929;49.062;10.338;2023-06-24T02:12:07;6.43;;;4.40;;
76995;SDS011;65929;49.062;10.338;2023-06-24T02:13:09;8.88;;;4.80;;
76995;SDS011;65929;49.062;10.338;2023-06-24T02:14:11;7.57;;;4.18;;
76995;SDS011;65929;49.062;10.338;2023-06-24T02:15:14;5.53;;;4.28;;
76995;SDS011;65929;49.062;10.338;2023-06-24T02:16:17;5.63;;;4.18;;
76995;SDS011;65929;49.062;10.338;2023-06-24T02:17:19;6.35;;;4.13;;
76995;SDS011;65929;49.062;10.338;2023-06-24T02:18:23;5.03;;;3.90;;
76995;SDS011;65929;49.062;10.338;2023-06-24T02:19:24;6.38;;;4.10;;
76995;SDS011;65929;49.062;10.338;2023-06-24T02:20:28;6.65;;;4.38;;
76995;SDS011;65929;49.062;10.338;2023-06-24T02:21:31;6.22;;;4.13;;
76995;SDS011;65929;49.062;10.338;2023-06-24T02:22:35;7.93;;;4.28;;
76995;SDS011;65929;49.062;10.338;2023-06-24T02:23:37;6.55;;;4.05;;
76995;SDS011;65929;49.062;10.338;2023-06-24T02:24:39;7.50;;;4.57;;
76995;SDS011;65929;49.062;10.338;2023-06-24T02:27:26;6.63;;;4.10;;
76995;SDS011;65929;49.062;10.338;2023-06-24T02:28:27;6.35;;;4.05;;
76995;SDS011;65929;49.062;10.338;2023-06-24T02:29:29;6.72;;;4.38;;
76995;SDS011;65929;49.062;10.338;2023-06-24T02:30:31;6.30;;;4.85;;
76995;SDS011;65929;49.062;10.338;2023-06-24T02:31:32;5.75;;;4.40;;
76995;SDS011;65929;49.062;10.338;2023-06-24T02:32:33;5.45;;;4.22;;
76995;SDS011;65929;49.062;10.338;2023-06-24T02:33:39;7.40;;;4.57;;
76995;SDS011;65929;49.062;10.338;2023-06-24T02:34:40;7.15;;;4.53;;
76995;SDS011;65929;49.062;10.338;2023-06-24T02:37:39;8.23;;;4.45;;
76995;SDS011;65929;49.062;10.338;2023-06-24T02:38:40;6.25;;;4.30;;
76995;SDS011;65929;49.062;10.338;2023-06-24T02:39:42;6.00;;;4.80;;
76995;SDS011;65929;49.062;10.338;2023-06-24T02:40:44;6.63;;;4.57;;
76995;SDS011;65929;49.062;10.338;2023-06-24T02:41:45;6.40;;;4.03;;
76995;SDS011;65929;49.062;10.338;2023-06-24T02:42:47;7.97;;;4.68;;
76995;SDS011;65929;49.062;10.338;2023-06-24T02:43:48;6.07;;;4.35;;
76995;SDS011;65929;49.062;10.338;2023-06-24T02:44:49;6.32;;;4.43;;
76995;SDS011;65929;49.062;10.338;2023-06-24T02:48:54;7.85;;;4.55;;
76995;SDS011;65929;49.062;10.338;2023-06-24T02:49:56;6.05;;;4.45;;
76995;SDS011;65929;49.062;10.338;2023-06-24T02:50:59;8.02;;;4.78;;
76995;SDS011;65929;49.062;10.338;2023-06-24T02:52:01;6.20;;;4.32;;
76995;SDS011;65929;49.062;10.338;2023-06-24T02:53:02;7.22;;;4.50;;
76995;SDS011;65929;49.062;10.338;2023-06-24T02:54:03;7.78;;;4.63;;
76995;SDS011;65929;49.062;10.338;2023-06-24T02:57:04;7.93;;;4.65;;
76995;SDS011;65929;49.062;10.338;2023-06-24T02:58:06;6.53;;;4.22;;
76995;SDS011;65929;49.062;10.338;2023-06-24T02:59:08;6.82;;;4.45;;
76995;SDS011;65929;49.062;10.338;2023-06-24T03:00:09;6.60;;;4.18;;
76995;SDS011;65929;49.062;10.338;2023-06-24T03:02:15;7.63;;;4.50;;
76995;SDS011;65929;49.062;10.338;2023-06-24T03:03:17;6.45;;;4.70;;
76995;SDS011;65929;49.062;10.338;2023-06-24T03:04:20;6.40;;;4.30;;
76995;SDS011;65929;49.062;10.338;2023-06-24T03:05:21;6.32;;;4.43;;
76995;SDS011;65929;49.062;10.338;2023-06-24T03:06:25;8.10;;;4.80;;
76995;SDS011;65929;49.062;10.338;2023-06-24T03:07:26;6.60;;;4.53;;
76995;SDS011;65929;49.062;10.338;2023-06-24T03:08:28;6.15;;;4.32;;
76995;SDS011;65929;49.062;10.338;2023-06-24T03:09:31;6.40;;;4.47;;
76995;SDS011;65929;49.062;10.338;2023-06-24T03:12:06;6.15;;;4.15;;
76995;SDS011;65929;49.062;10.338;2023-06-24T03:13:07;6.82;;;4.47;;
76995;SDS011;65929;49.062;10.338;2023-06-24T03:14:08;5.63;;;3.90;;
76995;SDS011;65929;49.062;10.338;2023-06-24T03:15:10;7.65;;;4.78;;
76995;SDS011;65929;49.062;10.338;2023-06-24T03:16:11;7.72;;;4.32;;
76995;SDS011;65929;49.062;10.338;2023-06-24T03:17:12;7.47;;;4.47;;
76995;SDS011;65929;49.062;10.338;2023-06-24T03:18:15;6.43;;;4.35;;
76995;SDS011;65929;49.062;10.338;2023-06-24T03:19:16;7.47;;;4.55;;
76995;SDS011;65929;49.062;10.338;2023-06-24T03:20:18;6.55;;;4.20;;
76995;SDS011;65929;49.062;10.338;2023-06-24T03:21:20;5.28;;;4.38;;
76995;SDS011;65929;49.062;10.338;2023-06-24T03:22:21;5.70;;;4.22;;
76995;SDS011;65929;49.062;10.338;2023-06-24T03:23:22;6.53;;;4.32;;
76995;SDS011;65929;49.062;10.338;2023-06-24T03:24:23;7.30;;;4.57;;
76995;SDS011;65929;49.062;10.338;2023-06-24T03:25:24;6.00;;;4.38;;
76995;SDS011;65929;49.062;10.338;2023-06-24T03:26:30;6.55;;;4.32;;
76995;SDS011;65929;49.062;10.338;2023-06-24T03:27:33;6.60;;;4.50;;
76995;SDS011;65929;49.062;10.338;2023-06-24T03:28:35;6.90;;;4.82;;
76995;SDS011;65929;49.062;10.338;2023-06-24T03:29:36;6.13;;;4.45;;
76995;SDS011;65929;49.062;10.338;2023-06-24T03:30:37;6.93;;;4.60;;
76995;SDS011;65929;49.062;10.338;2023-06-24T03:31:38;7.30;;;4.68;;
76995;SDS011;65929;49.062;10.338;2023-06-24T03:32:44;7.80;;;4.30;;
76995;SDS011;65929;49.062;10.338;2023-06-24T03:33:47;6.82;;;4.20;;
76995;SDS011;65929;49.062;10.338;2023-06-24T03:34:47;6.78;;;4.75;;
76995;SDS011;65929;49.062;10.338;2023-06-24T03:35:50;7.90;;;4.97;;
76995;SDS011;65929;49.062;10.338;2023-06-24T03:36:51;6.97;;;5.00;;
76995;SDS011;65929;49.062;10.338;2023-06-24T03:37:54;6.30;;;4.90;;
76995;SDS011;65929;49.062;10.338;2023-06-24T03:38:55;6.80;;;5.28;;
76995;SDS011;65929;49.062;10.338;2023-06-24T03:39:56;6.68;;;4.13;;
76995;SDS011;65929;49.062;10.338;2023-06-24T03:40:57;7.65;;;4.90;;
76995;SDS011;65929;49.062;10.338;2023-06-24T03:41:58;8.45;;;4.85;;
76995;SDS011;65929;49.062;10.338;2023-06-24T03:42:59;6.85;;;4.63;;
76995;SDS011;65929;49.062;10.338;2023-06-24T03:44:00;7.22;;;4.63;;
76995;SDS011;65929;49.062;10.338;2023-06-24T03:45:01;6.53;;;4.35;;
76995;SDS011;65929;49.062;10.338;2023-06-24T03:46:03;6.45;;;4.70;;
76995;SDS011;65929;49.062;10.338;2023-06-24T03:47:04;7.97;;;4.85;;
76995;SDS011;65929;49.062;10.338;2023-06-24T03:48:05;7.20;;;4.85;;
76995;SDS011;65929;49.062;10.338;2023-06-24T03:49:06;7.97;;;4.95;;
76995;SDS011;65929;49.062;10.338;2023-06-24T03:50:08;9.18;;;5.43;;
76995;SDS011;65929;49.062;10.338;2023-06-24T03:51:10;7.57;;;5.55;;
76995;SDS011;65929;49.062;10.338;2023-06-24T03:52:11;7.80;;;5.40;;
76995;SDS011;65929;49.062;10.338;2023-06-24T03:53:12;6.32;;;4.65;;
76995;SDS011;65929;49.062;10.338;2023-06-24T03:54:13;7.60;;;5.15;;
76995;SDS011;65929;49.062;10.338;2023-06-24T03:55:14;6.32;;;4.70;;
76995;SDS011;65929;49.062;10.338;2023-06-24T03:56:15;7.78;;;4.97;;
76995;SDS011;65929;49.062;10.338;2023-06-24T03:57:16;8.50;;;5.28;;
76995;SDS011;65929;49.062;10.338;2023-06-24T03:58:17;8.07;;;5.35;;
76995;SDS011;65929;49.062;10.338;2023-06-24T03:59:21;7.45;;;4.97;;
76995;SDS011;65929;49.062;10.338;2023-06-24T04:00:22;8.95;;;5.35;;
76995;SDS011;65929;49.062;10.338;2023-06-24T04:01:23;7.50;;;5.20;;
76995;SDS011;65929;49.062;10.338;2023-06-24T04:02:24;6.50;;;4.97;;
76995;SDS011;65929;49.062;10.338;2023-06-24T04:03:27;7.30;;;5.55;;
76995;SDS011;65929;49.062;10.338;2023-06-24T04:04:28;7.55;;;5.28;;
76995;SDS011;65929;49.062;10.338;2023-06-24T04:05:29;7.50;;;5.07;;
76995;SDS011;65929;49.062;10.338;2023-06-24T04:06:32;8.50;;;5.55;;
76995;SDS011;65929;49.062;10.338;2023-06-24T04:07:33;9.27;;;5.15;;
76995;SDS011;65929;49.062;10.338;2023-06-24T04:08:35;7.32;;;5.30;;
76995;SDS011;65929;49.062;10.338;2023-06-24T04:09:39;8.05;;;5.80;;
76995;SDS011;65929;49.062;10.338;2023-06-24T04:10:40;9.52;;;5.65;;
76995;SDS011;65929;49.062;10.338;2023-06-24T04:11:43;8.25;;;5.38;;
76995;SDS011;65929;49.062;10.338;2023-06-24T04:12:44;7.80;;;5.72;;
76995;SDS011;65929;49.062;10.338;2023-06-24T04:13:45;7.75;;;5.22;;
76995;SDS011;65929;49.062;10.338;2023-06-24T04:14:48;7.53;;;5.32;;
76995;SDS011;65929;49.062;10.338;2023-06-24T04:15:49;7.20;;;5.38;;
76995;SDS011;65929;49.062;10.338;2023-06-24T04:16:50;8.45;;;5.78;;
76995;SDS011;65929;49.062;10.338;2023-06-24T04:17:51;7.80;;;5.18;;
76995;SDS011;65929;49.062;10.338;2023-06-24T04:18:52;7.50;;;5.38;;
76995;SDS011;65929;49.062;10.338;2023-06-24T04:19:53;8.05;;;5.45;;
76995;SDS011;65929;49.062;10.338;2023-06-24T04:20:54;10.65;;;6.10;;
76995;SDS011;65929;49.062;10.338;2023-06-24T04:21:56;8.35;;;5.40;;
76995;SDS011;65929;49.062;10.338;2023-06-24T04:22:57;8.30;;;5.55;;
76995;SDS011;65929;49.062;10.338;2023-06-24T04:23:59;8.15;;;5.47;;
76995;SDS011;65929;49.062;10.338;2023-06-24T04:25:00;9.43;;;5.22;;
76995;SDS011;65929;49.062;10.338;2023-06-24T04:26:01;6.78;;;5.00;;
76995;SDS011;65929;49.062;10.338;2023-06-24T04:27:02;6.90;;;5.32;;
76995;SDS011;65929;49.062;10.338;2023-06-24T04:28:04;7.45;;;5.30;;
76995;SDS011;65929;49.062;10.338;2023-06-24T04:29:05;6.43;;;5.68;;
76995;SDS011;65929;49.062;10.338;2023-06-24T04:30:06;7.88;;;5.20;;
76995;SDS011;65929;49.062;10.338;2023-06-24T04:31:08;7.30;;;5.50;;
76995;SDS011;65929;49.062;10.338;2023-06-24T04:32:09;7.80;;;4.88;;
76995;SDS011;65929;49.062;10.338;2023-06-24T04:33:10;7.82;;;5.43;;
76995;SDS011;65929;49.062;10.338;2023-06-24T04:34:11;6.65;;;4.60;;
76995;SDS011;65929;49.062;10.338;2023-06-24T04:35:12;8.88;;;5.40;;
76995;SDS011;65929;49.062;10.338;2023-06-24T04:36:13;7.45;;;5.63;;
76995;SDS011;65929;49.062;10.338;2023-06-24T04:37:15;7.53;;;5.32;;
76995;SDS011;65929;49.062;10.338;2023-06-24T04:38:16;7.05;;;5.13;;
76995;SDS011;65929;49.062;10.338;2023-06-24T04:39:18;6.45;;;4.65;;
76995;SDS011;65929;49.062;10.338;2023-06-24T04:40:19;6.38;;;5.05;;
76995;SDS011;65929;49.062;10.338;2023-06-24T04:41:20;7.53;;;5.15;;
76995;SDS011;65929;49.062;10.338;2023-06-24T04:42:21;8.15;;;5.15;;
76995;SDS011;65929;49.062;10.338;2023-06-24T04:43:22;7.75;;;5.53;;
76995;SDS011;65929;49.062;10.338;2023-06-24T04:44:23;7.93;;;5.43;;
76995;SDS011;65929;49.062;10.338;2023-06-24T04:45:24;7.80;;;5.07;;
76995;SDS011;65929;49.062;10.338;2023-06-24T04:46:25;9.13;;;5.20;;
76995;SDS011;65929;49.062;10.338;2023-06-24T04:47:26;7.72;;;5.55;;
76995;SDS011;65929;49.062;10.338;2023-06-24T04:48:27;6.68;;;5.00;;
76995;SDS011;65929;49.062;10.338;2023-06-24T04:49:28;7.65;;;4.85;;
76995;SDS011;65929;49.062;10.338;2023-06-24T04:50:29;6.95;;;5.60;;
76995;SDS011;65929;49.062;10.338;2023-06-24T04:51:30;7.78;;;5.30;;
76995;SDS011;65929;49.062;10.338;2023-06-24T04:52:33;8.32;;;5.07;;
76995;SDS011;65929;49.062;10.338;2023-06-24T04:53:34;6.72;;;5.05;;
76995;SDS011;65929;49.062;10.338;2023-06-24T04:54:35;6.38;;;5.22;;
76995;SDS011;65929;49.062;10.338;2023-06-24T04:55:36;7.72;;;5.15;;
76995;SDS011;65929;49.062;10.338;2023-06-24T04:56:37;7.93;;;5.75;;
76995;SDS011;65929;49.062;10.338;2023-06-24T04:57:38;7.05;;;4.90;;
76995;SDS011;65929;49.062;10.338;2023-06-24T04:58:39;6.60;;;5.13;;
76995;SDS011;65929;49.062;10.338;2023-06-24T04:59:40;7.20;;;4.60;;
76995;SDS011;65929;49.062;10.338;2023-06-24T05:00:42;8.45;;;6.00;;
76995;SDS011;65929;49.062;10.338;2023-06-24T05:01:44;6.95;;;5.47;;
76995;SDS011;65929;49.062;10.338;2023-06-24T05:02:44;7.78;;;5.45;;
76995;SDS011;65929;49.062;10.338;2023-06-24T05:03:46;6.85;;;4.82;;
76995;SDS011;65929;49.062;10.338;2023-06-24T05:04:47;7.63;;;5.22;;
76995;SDS011;65929;49.062;10.338;2023-06-24T05:05:48;7.88;;;5.63;;
76995;SDS011;65929;49.062;10.338;2023-06-24T05:06:49;7.78;;;5.40;;
76995;SDS011;65929;49.062;10.338;2023-06-24T05:07:52;10.93;;;5.75;;
76995;SDS011;65929;49.062;10.338;2023-06-24T05:08:53;8.75;;;6.13;;
76995;SDS011;65929;49.062;10.338;2023-06-24T05:09:54;8.63;;;6.18;;
76995;SDS011;65929;49.062;10.338;2023-06-24T05:10:54;9.65;;;6.18;;
76995;SDS011;65929;49.062;10.338;2023-06-24T05:11:55;11.57;;;6.18;;
76995;SDS011;65929;49.062;10.338;2023-06-24T05:12:56;8.07;;;5.38;;
76995;SDS011;65929;49.062;10.338;2023-06-24T05:13:57;7.78;;;5.72;;
76995;SDS011;65929;49.062;10.338;2023-06-24T05:14:58;10.45;;;6.22;;
76995;SDS011;65929;49.062;10.338;2023-06-24T05:15:59;8.77;;;6.28;;
76995;SDS011;65929;49.062;10.338;2023-06-24T05:17:00;7.85;;;6.28;;
76995;SDS011;65929;49.062;10.338;2023-06-24T05:18:01;8.10;;;6.07;;
76995;SDS011;65929;49.062;10.338;2023-06-24T05:19:02;7.75;;;5.70;;
76995;SDS011;65929;49.062;10.338;2023-06-24T05:20:03;8.20;;;5.65;;
76995;SDS011;65929;49.062;10.338;2023-06-24T05:21:05;8.40;;;5.60;;
76995;SDS011;65929;49.062;10.338;2023-06-24T05:22:06;7.72;;;5.35;;
76995;SDS011;65929;49.062;10.338;2023-06-24T05:23:09;8.20;;;5.65;;
76995;SDS011;65929;49.062;10.338;2023-06-24T05:24:10;8.20;;;5.60;;
76995;SDS011;65929;49.062;10.338;2023-06-24T05:25:11;9.13;;;6.20;;
76995;SDS011;65929;49.062;10.338;2023-06-24T05:26:12;8.90;;;6.40;;
76995;SDS011;65929;49.062;10.338;2023-06-24T05:27:14;9.23;;;6.15;;
76995;SDS011;65929;49.062;10.338;2023-06-24T05:28:14;8.90;;;6.85;;
76995;SDS011;65929;49.062;10.338;2023-06-24T05:29:15;11.10;;;6.95;;
76995;SDS011;65929;49.062;10.338;2023-06-24T05:30:17;10.48;;;7.13;;
76995;SDS011;65929;49.062;10.338;2023-06-24T05:31:18;9.65;;;7.13;;
76995;SDS011;65929;49.062;10.338;2023-06-24T05:32:19;8.68;;;6.22;;
76995;SDS011;65929;49.062;10.338;2023-06-24T05:33:20;10.05;;;7.10;;
76995;SDS011;65929;49.062;10.338;2023-06-24T05:34:21;8.30;;;6.35;;
76995;SDS011;65929;49.062;10.338;2023-06-24T05:35:22;9.02;;;6.70;;
76995;SDS011;65929;49.062;10.338;2023-06-24T05:36:23;11.07;;;7.43;;
76995;SDS011;65929;49.062;10.338;2023-06-24T05:37:24;9.18;;;6.55;;
76995;SDS011;65929;49.062;10.338;2023-06-24T05:38:26;10.43;;;6.90;;
76995;SDS011;65929;49.062;10.338;2023-06-24T05:39:27;9.70;;;7.20;;
76995;SDS011;65929;49.062;10.338;2023-06-24T05:40:28;9.55;;;7.28;;
76995;SDS011;65929;49.062;10.338;2023-06-24T05:41:29;9.35;;;6.43;;
76995;SDS011;65929;49.062;10.338;2023-06-24T05:42:30;9.60;;;7.30;;
76995;SDS011;65929;49.062;10.338;2023-06-24T05:43:31;10.90;;;6.22;;
76995;SDS011;65929;49.062;10.338;2023-06-24T05:44:32;8.02;;;5.70;;
76995;SDS011;65929;49.062;10.338;2023-06-24T05:45:34;9.82;;;6.68;;
76995;SDS011;65929;49.062;10.338;2023-06-24T05:46:35;10.52;;;6.03;;
76995;SDS011;65929;49.062;10.338;2023-06-24T05:47:36;9.20;;;6.30;;
76995;SDS011;65929;49.062;10.338;2023-06-24T05:48:38;7.57;;;5.70;;
76995;SDS011;65929;49.062;10.338;2023-06-24T05:49:39;7.85;;;5.75;;
76995;SDS011;65929;49.062;10.338;2023-06-24T05:50:40;8.82;;;5.60;;
76995;SDS011;65929;49.062;10.338;2023-06-24T05:51:41;9.25;;;6.75;;
76995;SDS011;65929;49.062;10.338;2023-06-24T05:52:42;8.77;;;6.00;;
76995;SDS011;65929;49.062;10.338;2023-06-24T05:53:44;7.53;;;5.55;;
76995;SDS011;65929;49.062;10.338;2023-06-24T05:54:45;8.43;;;5.63;;
76995;SDS011;65929;49.062;10.338;2023-06-24T05:55:46;10.23;;;6.10;;
76995;SDS011;65929;49.062;10.338;2023-06-24T05:56:47;8.48;;;5.70;;
76995;SDS011;65929;49.062;10.338;2023-06-24T05:57:48;6.78;;;4.80;;
76995;SDS011;65929;49.062;10.338;2023-06-24T05:58:49;6.55;;;4.40;;
76995;SDS011;65929;49.062;10.338;2023-06-24T05:59:50;6.43;;;4.85;;
76995;SDS011;65929;49.062;10.338;2023-06-24T06:00:51;5.75;;;4.43;;
76995;SDS011;65929;49.062;10.338;2023-06-24T06:01:52;7.63;;;4.97;;
76995;SDS011;65929;49.062;10.338;2023-06-24T06:02:53;7.05;;;5.20;;
76995;SDS011;65929;49.062;10.338;2023-06-24T06:03:54;6.82;;;5.15;;
76995;SDS011;65929;49.062;10.338;2023-06-24T06:04:55;8.80;;;5.75;;
76995;SDS011;65929;49.062;10.338;2023-06-24T06:05:56;6.93;;;4.85;;
76995;SDS011;65929;49.062;10.338;2023-06-24T06:06:57;8.95;;;5.32;;
76995;SDS011;65929;49.062;10.338;2023-06-24T06:07:58;7.75;;;5.47;;
76995;SDS011;65929;49.062;10.338;2023-06-24T06:09:01;6.03;;;4.45;;
76995;SDS011;65929;49.062;10.338;2023-06-24T06:10:02;6.93;;;4.88;;
76995;SDS011;65929;49.062;10.338;2023-06-24T06:11:04;6.28;;;4.90;;
76995;SDS011;65929;49.062;10.338;2023-06-24T06:12:06;8.00;;;4.85;;
76995;SDS011;65929;49.062;10.338;2023-06-24T06:13:07;7.80;;;6.03;;
76995;SDS011;65929;49.062;10.338;2023-06-24T06:14:08;6.85;;;4.85;;
76995;SDS011;65929;49.062;10.338;2023-06-24T06:15:09;7.00;;;4.57;;
76995;SDS011;65929;49.062;10.338;2023-06-24T06:16:11;7.05;;;4.88;;
76995;SDS011;65929;49.062;10.338;2023-06-24T06:17:13;6.63;;;5.03;;
76995;SDS011;65929;49.062;10.338;2023-06-24T06:18:14;6.00;;;4.47;;
76995;SDS011;65929;49.062;10.338;2023-06-24T06:19:15;6.00;;;4.13;;
76995;SDS011;65929;49.062;10.338;2023-06-24T06:20:16;6.35;;;4.10;;
76995;SDS011;65929;49.062;10.338;2023-06-24T06:21:17;5.07;;;3.75;;
76995;SDS011;65929;49.062;10.338;2023-06-24T06:22:18;7.22;;;4.55;;